Darstellungsparameter: Aktuell verwendete Einstellungen:
Skalierung der Graphiken ... ?
xyx+y,   Skalierungsfaktor:      Skalierung: Modus: x, Faktor: 1
Darstellungszeitraum ... ?
Vom - - bis: - -   Zeitraum: 10.03.2014 - 10.03.2014
Min/Max/Avg-Anzeige ... ?
Zeige MMA aktuell
Zeige MMA Monat
Zeige MMA alles
Zeige --A aktuell
Zeige --A Monat
Zeige --A alles
Keine MMA-Anzeige
MMA:
Keine MMA-Graphiken
MMA-Basis: 10.03.2014 - 10.03.2014
Quicknavigation für Darstellung... ?
Tage:      1T, 2T, 3T, 5T -1T -2T -3T -5T +1T +2T +3T +5T
Wochen: 1W, 2W, 3W -1W -2W -3W +1W +2W +3W
Monate: 1M, 3M, 6M -1M -3M -6M +1M +3M +6M
Jahre:    1J, 3J, 5J, 10J -1J -3J -5J -10J +1J +3J +5J +10J
Nutze für die Darstellung ... ?
Originaldaten oder Mittelwerte auf ...
Stundenbasis Tagesbasis Wochenbasis
Monatsbasis Jahresbasis      Datenbasis: Original-Daten
Darstellen als:
Statistik (Auto) Statistik J:M      Darstellung:
Zur Graphik,    zurück zur Übersicht aller Sensoren.
 
Tabellarische Datenbersicht: ?
 
Sensor: Nr:Datum:Temp:Feuchte:Taupunkt:
Aussen-T/F 1 10-03-2014 00:00:00 4.3 C 86 % 2.17 C
2 10-03-2014 00:05:00 4.2 C 85 % 1.91 C
3 10-03-2014 00:10:00 4.1 C 85 % 1.81 C
4 10-03-2014 00:15:00 4 C 85 % 1.71 C
5 10-03-2014 00:20:00 3.9 C 85 % 1.61 C
6 10-03-2014 00:25:00 3.8 C 85 % 1.52 C
7 10-03-2014 00:30:00 3.7 C 86 % 1.58 C
8 10-03-2014 00:35:00 3.5 C 86 % 1.38 C
9 10-03-2014 00:40:00 3.3 C 86 % 1.19 C
10 10-03-2014 00:45:00 3.3 C 87 % 1.35 C
11 10-03-2014 00:50:00 3.2 C 87 % 1.25 C
12 10-03-2014 00:55:00 3.2 C 88 % 1.41 C
13 10-03-2014 01:00:00 3.1 C 88 % 1.31 C
14 10-03-2014 01:05:00 2.9 C 88 % 1.11 C
15 10-03-2014 01:10:00 2.9 C 89 % 1.27 C
16 10-03-2014 01:15:00 2.9 C 89 % 1.27 C
17 10-03-2014 01:20:00 2.8 C 89 % 1.17 C
18 10-03-2014 01:25:00 2.8 C 89 % 1.17 C
19 10-03-2014 01:30:00 2.7 C 89 % 1.07 C
20 10-03-2014 01:35:00 2.7 C 89 % 1.07 C
21 10-03-2014 01:40:00 2.7 C 89 % 1.07 C
22 10-03-2014 01:45:00 2.6 C 89 % 0.97 C
23 10-03-2014 01:50:00 2.6 C 89 % 0.97 C
24 10-03-2014 01:55:00 2.6 C 90 % 1.13 C
25 10-03-2014 02:00:00 2.4 C 90 % 0.93 C
Sensor: Nr:Datum:Temp:Feuchte:Taupunkt:
Aussen-T/F 26 10-03-2014 02:05:00 2.4 C 90 % 0.93 C
27 10-03-2014 02:10:00 2.3 C 90 % 0.83 C
28 10-03-2014 02:15:00 2.2 C 90 % 0.73 C
29 10-03-2014 02:20:00 2.2 C 90 % 0.73 C
30 10-03-2014 02:25:00 2.1 C 90 % 0.64 C
31 10-03-2014 02:30:00 2.1 C 91 % 0.79 C
32 10-03-2014 02:35:00 2.1 C 91 % 0.79 C
33 10-03-2014 02:40:00 2.1 C 91 % 0.79 C
34 10-03-2014 02:45:00 2.1 C 91 % 0.79 C
35 10-03-2014 02:50:00 2.1 C 91 % 0.79 C
36 10-03-2014 02:55:00 2.1 C 91 % 0.79 C
37 10-03-2014 03:00:00 1.9 C 91 % 0.59 C
38 10-03-2014 03:05:00 1.9 C 91 % 0.59 C
39 10-03-2014 03:10:00 1.9 C 92 % 0.74 C
40 10-03-2014 03:15:00 1.9 C 91 % 0.59 C
41 10-03-2014 03:20:00 1.8 C 91 % 0.49 C
42 10-03-2014 03:25:00 1.8 C 92 % 0.64 C
43 10-03-2014 03:30:00 1.8 C 92 % 0.64 C
44 10-03-2014 03:35:00 1.7 C 92 % 0.54 C
45 10-03-2014 03:40:00 1.7 C 92 % 0.54 C
46 10-03-2014 03:45:00 1.7 C 92 % 0.54 C
47 10-03-2014 03:50:00 1.6 C 92 % 0.44 C
48 10-03-2014 03:55:00 1.6 C 92 % 0.44 C
49 10-03-2014 04:00:00 1.6 C 92 % 0.44 C
50 10-03-2014 04:05:00 1.4 C 92 % 0.25 C
Sensor: Nr:Datum:Temp:Feuchte:Taupunkt:
Aussen-T/F 51 10-03-2014 04:10:00 1.4 C 92 % 0.25 C
52 10-03-2014 04:15:00 1.3 C 92 % 0.15 C
53 10-03-2014 04:20:00 1.3 C 92 % 0.15 C
54 10-03-2014 04:25:00 1.2 C 92 % 0.05 C
55 10-03-2014 04:30:00 1.2 C 92 % 0.05 C
56 10-03-2014 04:35:00 1.2 C 93 % 0.2 C
57 10-03-2014 04:40:00 1.3 C 93 % 0.3 C
58 10-03-2014 04:45:00 1.4 C 94 % 0.54 C
59 10-03-2014 04:50:00 1.4 C 93 % 0.4 C
60 10-03-2014 04:55:00 1.4 C 93 % 0.4 C
61 10-03-2014 05:00:00 1.4 C 93 % 0.4 C
62 10-03-2014 05:05:00 1.4 C 93 % 0.4 C
63 10-03-2014 05:10:00 1.3 C 93 % 0.3 C
64 10-03-2014 05:15:00 1.3 C 93 % 0.3 C
65 10-03-2014 05:20:00 1.3 C 93 % 0.3 C
66 10-03-2014 05:25:00 1.3 C 93 % 0.3 C
67 10-03-2014 05:30:00 1.2 C 93 % 0.2 C
68 10-03-2014 05:35:00 1.1 C 93 % 0.1 C
69 10-03-2014 05:40:00 1 C 93 % 0 C
70 10-03-2014 05:45:00 1 C 93 % 0 C
71 10-03-2014 05:50:00 1 C 93 % 0 C
72 10-03-2014 05:55:00 0.9 C 93 % -0.1 C
73 10-03-2014 06:00:00 1 C 94 % 0.15 C
74 10-03-2014 06:05:00 1.1 C 94 % 0.24 C
75 10-03-2014 06:10:00 1.1 C 94 % 0.24 C
Sensor: Nr:Datum:Temp:Feuchte:Taupunkt:
Aussen-T/F 76 10-03-2014 06:15:00 1.1 C 94 % 0.24 C
77 10-03-2014 06:20:00 1.1 C 94 % 0.24 C
78 10-03-2014 06:25:00 1 C 94 % 0.15 C
79 10-03-2014 06:30:00 0.9 C 94 % 0.05 C
80 10-03-2014 06:35:00 0.8 C 94 % -0.05 C
81 10-03-2014 06:40:00 0.8 C 93 % -0.2 C
82 10-03-2014 06:45:00 0.7 C 93 % -0.3 C
83 10-03-2014 06:50:00 0.7 C 94 % -0.15 C
84 10-03-2014 06:55:00 0.7 C 94 % -0.15 C
85 10-03-2014 07:00:00 0.7 C 94 % -0.15 C
86 10-03-2014 07:05:00 0.6 C 94 % -0.25 C
87 10-03-2014 07:10:00 0.6 C 94 % -0.25 C
88 10-03-2014 07:15:00 0.6 C 94 % -0.25 C
89 10-03-2014 07:20:00 0.6 C 94 % -0.25 C
90 10-03-2014 07:25:00 0.5 C 94 % -0.35 C
91 10-03-2014 07:30:00 0.6 C 94 % -0.25 C
92 10-03-2014 07:35:00 0.6 C 94 % -0.25 C
93 10-03-2014 07:40:00 0.6 C 95 % -0.11 C
94 10-03-2014 07:45:00 0.6 C 95 % -0.11 C
95 10-03-2014 07:50:00 0.7 C 95 % -0.01 C
96 10-03-2014 07:55:00 0.7 C 95 % -0.01 C
97 10-03-2014 08:00:00 0.7 C 95 % -0.01 C
98 10-03-2014 08:05:00 0.7 C 95 % -0.01 C
99 10-03-2014 08:10:00 0.7 C 95 % -0.01 C
100 10-03-2014 08:15:00 0.8 C 95 % 0.09 C
Sensor: Nr:Datum:Temp:Feuchte:Taupunkt:
Aussen-T/F 101 10-03-2014 08:20:00 0.9 C 95 % 0.19 C
102 10-03-2014 08:25:00 0.9 C 95 % 0.19 C
103 10-03-2014 08:30:00 0.9 C 95 % 0.19 C
104 10-03-2014 08:35:00 1.1 C 95 % 0.39 C
105 10-03-2014 08:40:00 1.2 C 95 % 0.49 C
106 10-03-2014 08:45:00 1.2 C 95 % 0.49 C
107 10-03-2014 08:50:00 1.3 C 95 % 0.59 C
108 10-03-2014 08:55:00 1.3 C 95 % 0.59 C
109 10-03-2014 09:00:00 1.6 C 95 % 0.89 C
110 10-03-2014 09:05:00 1.7 C 95 % 0.99 C
111 10-03-2014 09:10:00 1.7 C 95 % 0.99 C
112 10-03-2014 09:15:00 1.8 C 95 % 1.09 C
113 10-03-2014 09:20:00 1.9 C 95 % 1.19 C
114 10-03-2014 09:25:00 2.2 C 95 % 1.48 C
115 10-03-2014 09:30:00 2.3 C 95 % 1.58 C
116 10-03-2014 09:35:00 2.4 C 95 % 1.68 C
117 10-03-2014 09:40:00 2.8 C 95 % 2.08 C
118 10-03-2014 09:45:00 3.3 C 94 % 2.43 C
119 10-03-2014 09:50:00 3.7 C 93 % 2.68 C
120 10-03-2014 09:55:00 3.9 C 93 % 2.87 C
121 10-03-2014 10:00:00 4.2 C 92 % 3.02 C
122 10-03-2014 10:05:00 4.3 C 91 % 2.96 C
123 10-03-2014 10:10:00 4.5 C 91 % 3.16 C
124 10-03-2014 10:15:00 4.8 C 91 % 3.46 C
125 10-03-2014 10:20:00 5 C 90 % 3.5 C
Sensor: Nr:Datum:Temp:Feuchte:Taupunkt:
Aussen-T/F 126 10-03-2014 10:25:00 5.1 C 90 % 3.6 C
127 10-03-2014 10:30:00 5.2 C 90 % 3.7 C
128 10-03-2014 10:35:00 5.4 C 90 % 3.89 C
129 10-03-2014 10:40:00 5.6 C 90 % 4.09 C
130 10-03-2014 10:45:00 5.8 C 90 % 4.29 C
131 10-03-2014 10:50:00 5.9 C 89 % 4.23 C
132 10-03-2014 10:55:00 6.2 C 89 % 4.53 C
133 10-03-2014 11:00:00 6.4 C 88 % 4.56 C
134 10-03-2014 11:05:00 6.6 C 88 % 4.76 C
135 10-03-2014 11:10:00 6.8 C 88 % 4.96 C
136 10-03-2014 11:15:00 7.1 C 87 % 5.09 C
137 10-03-2014 11:20:00 7.4 C 86 % 5.22 C
138 10-03-2014 11:25:00 7.8 C 86 % 5.61 C
139 10-03-2014 11:30:00 8.1 C 84 % 5.56 C
140 10-03-2014 11:35:00 8.5 C 83 % 5.78 C
141 10-03-2014 11:40:00 8.8 C 83 % 6.08 C
142 10-03-2014 11:45:00 9.2 C 82 % 6.29 C
143 10-03-2014 11:50:00 9.6 C 80 % 6.32 C
144 10-03-2014 11:55:00 10.1 C 79 % 6.63 C
145 10-03-2014 12:00:00 10.4 C 78 % 6.74 C
146 10-03-2014 12:05:00 10.7 C 78 % 7.03 C
147 10-03-2014 12:10:00 11.1 C 76 % 7.04 C
148 10-03-2014 12:15:00 11.6 C 72 % 6.73 C
149 10-03-2014 12:20:00 12.1 C 71 % 7.01 C
150 10-03-2014 12:25:00 12.7 C 67 % 6.74 C
Sensor: Nr:Datum:Temp:Feuchte:Taupunkt:
Aussen-T/F 151 10-03-2014 12:30:00 13.4 C 64 % 6.74 C
152 10-03-2014 12:35:00 14 C 60 % 6.37 C
153 10-03-2014 12:40:00 14.8 C 60 % 7.12 C
154 10-03-2014 12:45:00 15.4 C 58 % 7.19 C
155 10-03-2014 12:50:00 15.9 C 54 % 6.61 C
156 10-03-2014 12:55:00 16.3 C 51 % 6.16 C
157 10-03-2014 13:00:00 16.7 C 54 % 7.36 C
158 10-03-2014 13:05:00 17 C 48 % 5.92 C
159 10-03-2014 13:10:00 17.2 C 50 % 6.7 C
160 10-03-2014 13:15:00 17.2 C 44 % 4.85 C
161 10-03-2014 13:20:00 17.1 C 45 % 5.08 C
162 10-03-2014 13:25:00 17 C 52 % 7.08 C
163 10-03-2014 13:30:00 17.1 C 44 % 4.76 C
164 10-03-2014 13:35:00 17.1 C 48 % 6.01 C
165 10-03-2014 13:40:00 17 C 44 % 4.67 C
166 10-03-2014 13:45:00 16.9 C 47 % 5.53 C
167 10-03-2014 13:50:00 16.8 C 44 % 4.49 C
168 10-03-2014 13:55:00 16.8 C 49 % 6.04 C
169 10-03-2014 14:00:00 16.8 C 42 % 3.83 C
170 10-03-2014 14:05:00 16.8 C 45 % 4.81 C
171 10-03-2014 14:10:00 16.9 C 48 % 5.83 C
172 10-03-2014 14:15:00 17.1 C 45 % 5.08 C
173 10-03-2014 14:20:00 17.2 C 43 % 4.53 C
174 10-03-2014 14:25:00 17.3 C 46 % 5.58 C
175 10-03-2014 14:30:00 17.4 C 42 % 4.37 C
Sensor: Nr:Datum:Temp:Feuchte:Taupunkt:
Aussen-T/F 176 10-03-2014 14:35:00 17.4 C 46 % 5.67 C
177 10-03-2014 14:40:00 17.3 C 44 % 4.94 C
178 10-03-2014 14:45:00 17.4 C 48 % 6.29 C
179 10-03-2014 14:50:00 17.2 C 46 % 5.49 C
180 10-03-2014 14:55:00 17 C 46 % 5.31 C
181 10-03-2014 15:00:00 17.1 C 40 % 3.41 C
182 10-03-2014 15:05:00 17.5 C 44 % 5.13 C
183 10-03-2014 15:10:00 17.8 C 40 % 4.03 C
184 10-03-2014 15:15:00 18 C 45 % 5.9 C
185 10-03-2014 15:20:00 17.8 C 40 % 4.03 C
186 10-03-2014 15:25:00 17.9 C 46 % 6.13 C
187 10-03-2014 15:30:00 17.8 C 47 % 6.35 C
188 10-03-2014 15:35:00 18.1 C 44 % 5.67 C
189 10-03-2014 15:40:00 18.4 C 40 % 4.57 C
190 10-03-2014 15:45:00 18.2 C 45 % 6.08 C
191 10-03-2014 15:50:00 17.7 C 46 % 5.95 C
192 10-03-2014 15:55:00 17.6 C 39 % 3.5 C
193 10-03-2014 16:00:00 17.5 C 43 % 4.8 C
194 10-03-2014 16:05:00 17.4 C 36 % 2.19 C
195 10-03-2014 16:10:00 17.3 C 47 % 5.89 C
196 10-03-2014 16:15:00 16.7 C 47 % 5.34 C
197 10-03-2014 16:20:00 16.3 C 48 % 5.28 C
198 10-03-2014 16:25:00 16 C 49 % 5.3 C
199 10-03-2014 16:30:00 15.8 C 52 % 5.97 C
200 10-03-2014 16:35:00 15.6 C 48 % 4.64 C
Sensor: Nr:Datum:Temp:Feuchte:Taupunkt:
Aussen-T/F 201 10-03-2014 16:40:00 15.6 C 51 % 5.51 C
202 10-03-2014 16:45:00 15.4 C 52 % 5.61 C
203 10-03-2014 16:50:00 15.3 C 53 % 5.79 C
204 10-03-2014 16:55:00 15.3 C 50 % 4.95 C
205 10-03-2014 17:00:00 15.1 C 52 % 5.33 C
206 10-03-2014 17:05:00 15.1 C 50 % 4.77 C
207 10-03-2014 17:10:00 15.2 C 52 % 5.42 C
208 10-03-2014 17:15:00 15.1 C 55 % 6.14 C
209 10-03-2014 17:20:00 14.8 C 55 % 5.86 C
210 10-03-2014 17:25:00 14.7 C 55 % 5.76 C
211 10-03-2014 17:30:00 14.5 C 53 % 5.05 C
212 10-03-2014 17:35:00 14.4 C 54 % 5.22 C
213 10-03-2014 17:40:00 14.2 C 54 % 5.04 C
214 10-03-2014 17:45:00 14.1 C 54 % 4.94 C
215 10-03-2014 17:50:00 13.8 C 54 % 4.66 C
216 10-03-2014 17:55:00 13.7 C 55 % 4.83 C
217 10-03-2014 18:00:00 13.4 C 55 % 4.55 C
218 10-03-2014 18:05:00 13.2 C 55 % 4.37 C
219 10-03-2014 18:10:00 13 C 55 % 4.18 C
220 10-03-2014 18:15:00 12.8 C 56 % 4.25 C
221 10-03-2014 18:20:00 12.6 C 57 % 4.32 C
222 10-03-2014 18:25:00 12.3 C 57 % 4.04 C
223 10-03-2014 18:30:00 12.2 C 57 % 3.94 C
224 10-03-2014 18:35:00 12.1 C 58 % 4.1 C
225 10-03-2014 18:40:00 12 C 58 % 4 C
Sensor: Nr:Datum:Temp:Feuchte:Taupunkt:
Aussen-T/F 226 10-03-2014 18:45:00 11.8 C 58 % 3.82 C
227 10-03-2014 18:50:00 11.7 C 58 % 3.72 C
228 10-03-2014 18:55:00 11.6 C 59 % 3.87 C
229 10-03-2014 19:00:00 11.5 C 59 % 3.78 C
230 10-03-2014 19:05:00 11.3 C 62 % 4.29 C
231 10-03-2014 19:10:00 10.8 C 64 % 4.27 C
232 10-03-2014 19:15:00 10.8 C 62 % 3.82 C
233 10-03-2014 19:20:00 10.8 C 62 % 3.82 C
234 10-03-2014 19:25:00 10.5 C 66 % 4.43 C
235 10-03-2014 19:30:00 10.2 C 67 % 4.36 C
236 10-03-2014 19:35:00 10.1 C 66 % 4.05 C
237 10-03-2014 19:40:00 10.2 C 64 % 3.7 C
238 10-03-2014 19:45:00 10 C 65 % 3.73 C
239 10-03-2014 19:50:00 9.8 C 66 % 3.76 C
240 10-03-2014 19:55:00 9.6 C 66 % 3.57 C
241 10-03-2014 20:00:00 9.4 C 67 % 3.59 C
242 10-03-2014 20:05:00 9.2 C 67 % 3.4 C
243 10-03-2014 20:10:00 9.2 C 67 % 3.4 C
244 10-03-2014 20:15:00 9.1 C 68 % 3.52 C
245 10-03-2014 20:20:00 8.9 C 67 % 3.12 C
246 10-03-2014 20:25:00 8.9 C 69 % 3.53 C
247 10-03-2014 20:30:00 8.8 C 70 % 3.64 C
248 10-03-2014 20:35:00 8.7 C 69 % 3.34 C
249 10-03-2014 20:40:00 8.5 C 71 % 3.55 C
250 10-03-2014 20:45:00 8.4 C 71 % 3.46 C
Sensor: Nr:Datum:Temp:Feuchte:Taupunkt:
Aussen-T/F 251 10-03-2014 20:50:00 8.3 C 71 % 3.36 C
252 10-03-2014 20:55:00 8.2 C 71 % 3.26 C
253 10-03-2014 21:00:00 8.2 C 70 % 3.06 C
254 10-03-2014 21:05:00 8.2 C 71 % 3.26 C
255 10-03-2014 21:10:00 8 C 70 % 2.87 C
256 10-03-2014 21:15:00 7.8 C 70 % 2.68 C
257 10-03-2014 21:20:00 7.7 C 71 % 2.78 C
258 10-03-2014 21:25:00 7.6 C 71 % 2.69 C
259 10-03-2014 21:30:00 7.6 C 71 % 2.69 C
260 10-03-2014 21:35:00 7.5 C 69 % 2.19 C
261 10-03-2014 21:40:00 7.4 C 71 % 2.5 C
262 10-03-2014 21:45:00 7.3 C 73 % 2.79 C
263 10-03-2014 21:50:00 7.1 C 75 % 2.98 C
264 10-03-2014 21:55:00 7 C 75 % 2.88 C
265 10-03-2014 22:00:00 6.9 C 73 % 2.4 C
266 10-03-2014 22:05:00 6.9 C 73 % 2.4 C
267 10-03-2014 22:10:00 6.9 C 74 % 2.6 C
268 10-03-2014 22:15:00 6.9 C 74 % 2.6 C
269 10-03-2014 22:20:00 6.8 C 74 % 2.5 C
270 10-03-2014 22:25:00 6.8 C 75 % 2.69 C
271 10-03-2014 22:30:00 6.7 C 75 % 2.59 C
272 10-03-2014 22:35:00 6.6 C 75 % 2.49 C
273 10-03-2014 22:40:00 6.4 C 76 % 2.49 C
274 10-03-2014 22:45:00 6.3 C 77 % 2.57 C
275 10-03-2014 22:50:00 6.3 C 77 % 2.57 C
Sensor: Nr:Datum:Temp:Feuchte:Taupunkt:
Aussen-T/F 276 10-03-2014 22:55:00 6.3 C 76 % 2.39 C
277 10-03-2014 23:00:00 6.2 C 76 % 2.29 C
278 10-03-2014 23:05:00 6.2 C 76 % 2.29 C
279 10-03-2014 23:10:00 6.2 C 76 % 2.29 C
280 10-03-2014 23:15:00 6.1 C 76 % 2.2 C
281 10-03-2014 23:20:00 6 C 77 % 2.28 C
282 10-03-2014 23:25:00 5.9 C 77 % 2.19 C
283 10-03-2014 23:30:00 5.8 C 78 % 2.27 C
284 10-03-2014 23:35:00 5.6 C 78 % 2.07 C
285 10-03-2014 23:40:00 5.4 C 79 % 2.06 C
286 10-03-2014 23:45:00 5.3 C 80 % 2.14 C
287 10-03-2014 23:50:00 5.1 C 80 % 1.94 C
288 10-03-2014 23:55:00 4.8 C 82 % 1.99 C

Legende:
   Min
   Max


Maximal/Minimal-Werte vom 10.03.2014 - 10.03.2014

Sensor Min Max Avg
Temp
(Aussen-T/F)
0.5 °C
10-03-2014  07:25:00
18.4 °C
10-03-2014  15:40:00
7.44 °C
Feuchte
(Aussen-T/F)
36 %
10-03-2014  16:05:00
95 %
10-03-2014  07:40:00
75.5 %
Taupunkt
(Aussen-T/F)
-0.35 C
10-03-2014  07:25:00
7.36 C
10-03-2014  13:00:00
2.81 C

Die Daten stammen von einer Davis Vantage Pro 2 Wetter-Station und werden unter Linux mit der Software wview2wettercgi und aufbereitet. Alle Angaben erfolgen ohne Gewähr für ihre Vollständigkeit oder Richtigkeit.
Kontakt: Rainer Krienke krienke@uni-koblenz.de . Meine Webseiten an der Uni Koblenz oder privat.
Version: $Revision: 0.78 $